Time;durP1;ratioP1;P1;durP2;ratioP2;P2;SDS_P1;SDS_P2;PMS_P1;PMS_P2;Temp;Humidity;BMP_temperature;BMP_pressure;BME280_temperature;BME280_humidity;BME280_pressure;Samples;Min_cycle;Max_cycle;Signal;HPM_P1;HPM_P2
2023/03/30 00:00:37;;;;;;;8.20;3.40;;;;;;;11.64;72.11;100552.56;4981446;28;20076;-70
2023/03/30 00:03:02;;;;;;;8.32;3.35;;;;;;;11.64;72.59;100557.81;4997913;28;20490;-70
2023/03/30 00:05:28;;;;;;;4.75;3.15;;;;;;;11.67;72.17;100568.28;4993341;28;20049;-69
2023/03/30 00:07:54;;;;;;;11.25;3.15;;;;;;;11.67;71.75;100563.03;4987900;28;20037;-70
2023/03/30 00:10:20;;;;;;;9.30;3.35;;;;;;;11.70;71.17;100547.22;4992677;28;20026;-70
2023/03/30 00:12:49;;;;;;;8.10;3.17;;;;;;;11.66;71.46;100554.28;4997741;28;20386;-69
2023/03/30 00:15:17;;;;;;;6.95;2.70;;;;;;;11.66;71.44;100559.53;5032609;28;20068;-70
2023/03/30 00:17:44;;;;;;;12.25;3.00;;;;;;;11.68;71.23;100546.38;5004759;28;20041;-70
2023/03/30 00:20:12;;;;;;;5.60;2.90;;;;;;;11.69;71.09;100535.84;5017804;28;20040;-70
2023/03/30 00:22:42;;;;;;;11.95;5.30;;;;;;;11.70;70.69;100529.69;5016565;28;20037;-70
2023/03/30 00:25:10;;;;;;;7.67;3.07;;;;;;;11.69;70.91;100527.09;5017275;28;20458;-69
2023/03/30 00:27:36;;;;;;;5.53;2.78;;;;;;;11.64;70.91;100536.81;5015754;28;20260;-69
2023/03/30 00:30:03;;;;;;;7.30;3.10;;;;;;;11.59;71.11;100531.69;4984528;28;20459;-69
2023/03/30 00:32:29;;;;;;;7.10;2.60;;;;;;;11.55;70.86;100532.63;4999816;28;20076;-69
2023/03/30 00:34:55;;;;;;;6.85;3.40;;;;;;;11.54;70.60;100518.66;4981393;28;20080;-71
2023/03/30 00:37:22;;;;;;;5.60;2.70;;;;;;;11.56;70.14;100521.25;5015390;28;20102;-70
2023/03/30 00:39:47;;;;;;;4.80;2.83;;;;;;;11.55;70.23;100519.50;5000951;28;20044;-71
2023/03/30 00:42:16;;;;;;;6.28;2.83;;;;;;;11.53;70.90;100518.69;4995424;28;20417;-71
2023/03/30 00:45:09;;;;;;;8.23;3.88;;;;;;;11.49;70.64;100514.41;5015844;28;20044;-71
2023/03/30 00:47:42;;;;;;;8.25;2.75;;;;;;;11.53;70.08;100502.94;5011370;28;20056;-71
2023/03/30 00:50:09;;;;;;;6.07;2.67;;;;;;;11.48;70.45;100500.44;5015090;28;20103;-72
2023/03/30 00:52:37;;;;;;;7.65;2.40;;;;;;;11.49;69.91;100496.88;5015628;28;20454;-71
2023/03/30 00:55:09;;;;;;;6.63;2.65;;;;;;;11.54;69.45;100496.81;5014985;28;20179;-70
2023/03/30 00:57:43;;;;;;;7.38;2.33;;;;;;;11.54;69.39;100487.19;5005393;28;20089;-70
2023/03/30 01:00:10;;;;;;;6.78;2.50;;;;;;;11.62;69.40;100476.50;5027572;28;20137;-70
2023/03/30 01:02:40;;;;;;;6.78;2.47;;;;;;;11.65;69.41;100486.06;4997268;28;20041;-70
2023/03/30 01:05:07;;;;;;;7.55;2.60;;;;;;;11.71;69.04;100473.69;5013275;28;20072;-71
2023/03/30 01:07:34;;;;;;;5.22;2.20;;;;;;;11.71;69.56;100465.81;4997011;28;20042;-70
2023/03/30 01:10:01;;;;;;;4.80;2.42;;;;;;;11.67;69.96;100472.03;5002352;28;20034;-71
2023/03/30 01:12:27;;;;;;;6.38;2.15;;;;;;;11.67;69.76;100472.03;5005935;28;20233;-71
2023/03/30 01:14:52;;;;;;;6.63;2.58;;;;;;;11.69;70.02;100469.38;4994110;28;20536;-70
2023/03/30 01:17:39;;;;;;;7.93;2.58;;;;;;;11.71;70.04;100459.69;4983834;28;20073;-71
2023/03/30 01:20:46;;;;;;;6.32;2.85;;;;;;;11.68;70.19;100460.63;5014397;28;20089;-76
2023/03/30 01:23:11;;;;;;;7.05;2.33;;;;;;;11.68;70.19;100458.00;5003734;28;20037;-77
2023/03/30 01:26:05;;;;;;;10.55;3.00;;;;;;;11.69;70.02;100472.84;5013667;28;20041;-76
2023/03/30 01:28:51;;;;;;;6.45;2.90;;;;;;;11.68;70.07;100471.13;5015567;28;20044;-76
2023/03/30 01:31:26;;;;;;;7.22;2.60;;;;;;;11.61;70.08;100480.03;5004651;28;20562;-76
2023/03/30 01:34:27;;;;;;;7.32;2.50;;;;;;;11.57;70.27;100468.72;5016106;28;20037;-76
2023/03/30 01:37:05;;;;;;;;;;;;;;;11.58;70.46;100467.00;5000030;28;20033;-77
2023/03/30 01:40:11;;;;;;;7.53;2.63;;;;;;;11.54;70.78;100478.44;5029918;28;19917;-77
2023/03/30 01:43:00;;;;;;;6.53;2.60;;;;;;;11.51;70.85;100468.03;5009928;28;20057;-76
2023/03/30 01:45:35;;;;;;;7.00;2.80;;;;;;;11.52;71.00;100460.13;5014554;28;20079;-75
2023/03/30 01:48:03;;;;;;;6.38;2.65;;;;;;;11.49;71.13;100456.69;5015360;28;20052;-76
2023/03/30 01:50:30;;;;;;;8.15;3.00;;;;;;;11.48;70.90;100447.97;5014584;28;20128;-77
2023/03/30 01:53:07;;;;;;;7.63;2.40;;;;;;;11.52;70.67;100443.50;5014037;28;20034;-76
2023/03/30 01:55:46;;;;;;;6.22;2.85;;;;;;;11.55;71.06;100443.41;5003454;28;20036;-77
2023/03/30 01:58:20;;;;;;;5.63;2.10;;;;;;;11.53;71.16;100429.47;5014073;28;20426;-77
2023/03/30 02:00:49;;;;;;;6.65;2.10;;;;;;;11.57;70.76;100432.00;5010922;28;20029;-76
2023/03/30 02:03:27;;;;;;;5.85;2.05;;;;;;;11.63;70.35;100456.38;5014705;28;20108;-77
2023/03/30 02:05:58;;;;;;;5.72;1.80;;;;;;;11.66;70.43;100470.28;5008336;28;20029;-77
2023/03/30 02:08:29;;;;;;;5.43;1.90;;;;;;;11.75;69.97;100456.97;5013981;28;20041;-77
2023/03/30 02:10:57;;;;;;;7.03;2.05;;;;;;;11.76;69.96;100450.81;5008688;28;20030;-76
2023/03/30 02:13:25;;;;;;;7.07;2.20;;;;;;;11.75;70.08;100451.72;5025500;28;20368;-77
2023/03/30 02:16:23;;;;;;;4.88;1.83;;;;;;;11.76;70.08;100457.81;5005393;28;20046;-76
2023/03/30 02:18:49;;;;;;;5.70;1.88;;;;;;;11.82;69.42;100451.56;5011289;28;20044;-77
2023/03/30 02:21:15;;;;;;;8.18;2.42;;;;;;;11.82;69.69;100449.81;4978737;28;20049;-76
2023/03/30 02:23:45;;;;;;;6.82;2.30;;;;;;;11.83;69.77;100454.16;4998924;28;20041;-77
2023/03/30 02:26:11;;;;;;;7.78;2.40;;;;;;;11.83;69.88;100458.56;5013867;28;20107;-76
2023/03/30 02:28:37;;;;;;;6.43;2.25;;;;;;;11.83;70.09;100448.06;4994745;28;20046;-76
2023/03/30 02:31:03;;;;;;;10.68;2.50;;;;;;;11.79;69.80;100448.13;4996983;28;20045;-76
2023/03/30 02:36:17;;;;;;;5.72;2.17;;;;;;;11.74;69.92;100447.38;5403209;22;20493;-70
2023/03/30 02:39:11;;;;;;;6.50;2.17;;;;;;;11.71;70.22;100452.69;5416236;23;20056;31
2023/03/30 02:44:28;;;;;;;5.53;2.05;;;;;;;11.64;70.55;100452.84;5317736;22;1194578;-69
2023/03/30 02:55:28;;;;;;;4.03;2.28;;;;;;;11.64;71.10;100451.09;5484932;22;20029;-73
2023/03/30 03:03:35;;;;;;;6.80;2.33;;;;;;;11.71;70.80;100450.06;5178174;22;20046;-70
2023/03/30 03:06:02;;;;;;;9.38;2.65;;;;;;;11.67;70.94;100437.91;5440141;22;20073;-74
2023/03/30 03:08:36;;;;;;;7.53;3.20;;;;;;;11.78;70.64;100454.28;5217584;23;20060;-69
2023/03/30 03:11:02;;;;;;;7.93;2.67;;;;;;;11.73;71.24;100432.50;5149254;23;20456;-71
2023/03/30 03:13:27;;;;;;;5.18;1.98;;;;;;;11.81;70.66;100434.97;5256682;23;20061;-74
2023/03/30 03:18:27;;;;;;;6.80;2.20;;;;;;;11.90;70.49;100440.00;5375215;23;20038;-72
2023/03/30 03:23:27;;;;;;;6.22;2.28;;;;;;;11.96;70.28;100444.28;5105639;23;20072;-69
2023/03/30 03:30:58;;;;;;;6.70;1.90;;;;;;;12.10;69.63;100447.44;5546337;22;20056;-74
2023/03/30 03:35:54;;;;;;;7.15;1.92;;;;;;;12.17;70.01;100436.75;5436170;23;20021;-71
2023/03/30 03:38:23;;;;;;;4.82;1.70;;;;;;;12.18;69.70;100433.25;5027599;23;20042;-70
2023/03/30 03:40:53;;;;;;;4.03;1.95;;;;;;;12.19;69.99;100429.72;4977793;28;20100;-69
2023/03/30 03:43:19;;;;;;;;;;;;;;;12.20;69.85;100427.06;4986230;28;20041;-74
2023/03/30 03:45:45;;;;;;;4.97;1.70;;;;;;;12.17;70.16;100437.63;4981048;28;19921;-74
2023/03/30 03:48:12;;;;;;;5.63;2.15;;;;;;;12.15;69.49;100422.81;4998336;28;20401;-74
2023/03/30 03:50:37;;;;;;;5.55;2.20;;;;;;;12.19;69.13;100417.44;4998090;28;20049;-74
2023/03/30 03:53:03;;;;;;;7.07;2.47;;;;;;;12.18;69.47;100399.94;4982075;28;20500;-75
2023/03/30 03:55:29;;;;;;;7.05;2.40;;;;;;;12.18;68.64;100412.22;4991688;28;20100;-75
2023/03/30 03:57:54;;;;;;;6.07;2.05;;;;;;;12.21;68.46;100415.66;4964403;28;20468;-76
2023/03/30 04:00:22;;;;;;;6.43;2.08;;;;;;;12.24;68.51;100406.81;4987973;28;20046;-74
2023/03/30 04:02:47;;;;;;;5.65;2.08;;;;;;;12.24;68.47;100406.81;4978598;28;20354;-75
2023/03/30 04:05:13;;;;;;;9.75;2.10;;;;;;;12.21;68.12;100404.25;4988070;28;20034;-74
2023/03/30 04:07:39;;;;;;;5.60;2.15;;;;;;;12.23;67.89;100399.84;4996169;28;20045;-75
2023/03/30 04:10:06;;;;;;;7.65;2.00;;;;;;;12.20;67.93;100394.69;5016008;28;20045;-75
2023/03/30 04:12:31;;;;;;;3.97;1.90;;;;;;;12.23;67.43;100399.84;4996139;28;20038;-74
2023/03/30 04:14:57;;;;;;;4.93;1.83;;;;;;;12.22;67.79;100406.00;4986238;28;20397;-76
2023/03/30 04:17:24;;;;;;;4.15;1.65;;;;;;;12.23;67.28;100400.69;4996203;28;20064;-74
2023/03/30 04:19:53;;;;;;;4.97;1.55;;;;;;;12.22;68.17;100404.22;4997140;28;20069;-75
2023/03/30 04:22:23;;;;;;;5.72;2.05;;;;;;;12.21;69.67;100399.00;4981309;28;20064;-78
2023/03/30 04:24:49;;;;;;;6.25;1.83;;;;;;;12.15;70.44;100409.69;4984713;28;20462;-77
2023/03/30 04:27:15;;;;;;;5.93;2.10;;;;;;;12.13;70.25;100404.47;5002136;28;20052;-77
2023/03/30 04:29:45;;;;;;;6.38;1.95;;;;;;;12.11;70.18;100395.75;4970558;28;20410;-77
2023/03/30 04:32:19;;;;;;;6.10;2.13;;;;;;;12.05;70.46;100381.03;4992291;28;20101;-77
2023/03/30 04:34:45;;;;;;;6.28;2.00;;;;;;;12.00;69.81;100393.41;4987535;28;20034;-76
2023/03/30 04:37:16;;;;;;;7.35;1.80;;;;;;;11.95;70.61;100393.53;4992421;28;20042;-76
2023/03/30 04:39:42;;;;;;;6.82;2.50;;;;;;;11.93;70.62;100384.81;4973821;28;20383;-77
2023/03/30 04:42:13;;;;;;;4.05;1.80;;;;;;;11.89;71.24;100393.63;4990879;28;20454;-77
2023/03/30 04:44:41;;;;;;;6.97;1.90;;;;;;;11.87;71.12;100389.34;5014099;28;20030;-72
2023/03/30 04:47:07;;;;;;;4.75;1.98;;;;;;;11.82;71.08;100392.03;4976983;28;20058;-72
2023/03/30 04:49:32;;;;;;;6.20;2.55;;;;;;;11.82;70.95;100383.31;4984011;28;20176;-71
2023/03/30 04:51:58;;;;;;;7.05;2.20;;;;;;;11.78;71.29;100369.41;4990207;28;20037;-72
2023/03/30 04:54:23;;;;;;;7.78;2.40;;;;;;;11.66;71.53;100370.56;4968354;28;20041;-72
2023/03/30 04:56:49;;;;;;;8.98;1.90;;;;;;;11.63;71.22;100382.91;4976610;28;20043;-71
2023/03/30 04:59:15;;;;;;;5.80;2.22;;;;;;;11.56;71.20;100371.69;4980199;28;20386;-72
2023/03/30 05:01:40;;;;;;;7.32;2.20;;;;;;;11.53;71.54;100372.59;4993296;28;20394;-72
2023/03/30 05:04:06;;;;;;;5.38;2.08;;;;;;;11.55;71.50;100375.19;4979729;28;20041;-72
2023/03/30 05:09:53;;;;;;;4.50;2.15;;;;;;;11.42;71.82;100398.22;5007532;28;20044;-72
2023/03/30 05:12:19;;;;;;;8.35;2.40;;;;;;;11.38;72.84;100397.44;4990737;28;20046;-76
2023/03/30 05:14:44;;;;;;;7.55;2.10;;;;;;;11.34;73.24;100400.16;4971787;28;20421;-77
2023/03/30 05:17:10;;;;;;;4.50;2.20;;;;;;;11.33;73.15;100417.66;4991712;28;20057;-78
2023/03/30 05:19:35;;;;;;;7.65;2.90;;;;;;;11.29;74.60;100439.59;4983147;28;20041;-77
2023/03/30 05:22:01;;;;;;;7.90;2.85;;;;;;;11.19;77.71;100436.31;4962546;28;20084;-76
2023/03/30 05:24:26;;;;;;;8.73;3.20;;;;;;;11.13;80.55;100420.69;4995489;28;20052;-75
2023/03/30 05:26:52;;;;;;;10.57;3.35;;;;;;;11.08;81.57;100443.53;4984398;28;20128;-76
2023/03/30 05:29:17;;;;;;;7.97;3.33;;;;;;;11.02;82.19;100444.53;4979978;28;20046;-76
2023/03/30 05:31:43;;;;;;;5.22;2.78;;;;;;;10.95;83.08;100445.53;4983208;28;20041;-75
2023/03/30 05:34:08;;;;;;;7.85;3.40;;;;;;;10.91;84.07;100460.44;4987702;28;20035;-76
2023/03/30 05:36:34;;;;;;;8.30;3.25;;;;;;;10.85;85.31;100457.09;4973579;28;20049;-71
2023/03/30 05:39:00;;;;;;;6.80;3.10;;;;;;;10.80;85.31;100449.31;4964932;28;20041;-71
2023/03/30 05:41:28;;;;;;;8.40;3.95;;;;;;;10.75;85.82;100451.16;4976597;28;20053;-71
2023/03/30 05:43:54;;;;;;;6.97;3.03;;;;;;;10.71;86.62;100444.25;4994566;28;20030;-71
2023/03/30 05:46:21;;;;;;;9.48;3.33;;;;;;;10.70;86.76;100453.00;4979729;28;20038;-71
2023/03/30 05:48:47;;;;;;;8.25;3.67;;;;;;;10.68;86.98;100455.66;4976437;28;20427;-72
2023/03/30 05:51:12;;;;;;;8.90;3.65;;;;;;;10.68;86.38;100455.66;5000890;28;20144;-71
2023/03/30 05:53:37;;;;;;;10.77;3.60;;;;;;;10.65;87.49;100455.72;4980292;28;20038;-71
2023/03/30 05:56:03;;;;;;;9.77;3.55;;;;;;;10.64;87.22;100453.13;4979136;28;20398;-71
2023/03/30 05:58:29;;;;;;;9.23;3.72;;;;;;;10.61;87.07;100448.78;4993955;28;20071;-72
2023/03/30 06:00:57;;;;;;;9.45;3.33;;;;;;;10.60;87.47;100451.44;4989037;28;20035;-71
2023/03/30 06:03:50;;;;;;;9.98;3.45;;;;;;;10.60;87.40;100449.69;4962119;28;20057;-71
2023/03/30 06:06:15;;;;;;;9.52;3.70;;;;;;;10.61;87.76;100445.31;5004093;28;20504;-71
2023/03/30 06:08:41;;;;;;;6.82;3.25;;;;;;;10.59;88.20;100442.72;4987331;28;20084;-71
2023/03/30 06:11:08;;;;;;;8.30;3.78;;;;;;;10.60;87.82;100459.31;4979611;28;20041;-71
2023/03/30 06:13:33;;;;;;;7.75;3.35;;;;;;;10.58;88.07;100462.81;4963199;28;20121;-71
2023/03/30 06:16:00;;;;;;;8.23;3.03;;;;;;;10.56;88.14;100476.84;4974713;28;20508;-71
2023/03/30 06:18:26;;;;;;;10.50;3.65;;;;;;;10.52;88.97;100469.94;4988733;28;20072;-71
2023/03/30 06:20:51;;;;;;;9.90;3.33;;;;;;;10.50;89.18;100466.47;4981170;28;20053;-71
2023/03/30 06:23:17;;;;;;;8.20;3.55;;;;;;;10.50;89.51;100471.69;4973657;28;20041;-70
2023/03/30 06:25:51;;;;;;;8.32;3.70;;;;;;;10.50;89.38;100482.19;4977690;28;20141;-71
2023/03/30 06:28:16;;;;;;;10.68;4.20;;;;;;;10.49;89.27;100470.00;5011863;28;20365;-70
2023/03/30 06:30:44;;;;;;;9.18;4.00;;;;;;;10.51;89.27;100465.56;4977798;28;20031;-70
2023/03/30 06:33:10;;;;;;;10.82;3.97;;;;;;;10.52;88.83;100475.16;4972817;28;20049;-70
2023/03/30 06:35:35;;;;;;;11.80;3.70;;;;;;;10.52;88.38;100469.94;4975844;28;20030;-71
2023/03/30 06:38:01;;;;;;;10.73;3.47;;;;;;;10.54;88.00;100478.63;4985445;28;20117;-70
2023/03/30 06:40:27;;;;;;;13.50;4.13;;;;;;;10.56;87.76;100482.09;4993785;28;20045;-70
2023/03/30 06:42:52;;;;;;;10.43;3.42;;;;;;;10.56;87.46;100482.94;4993706;28;20046;-71
2023/03/30 06:45:18;;;;;;;11.27;3.38;;;;;;;10.60;87.17;100480.25;4974094;28;20124;-70
2023/03/30 06:47:43;;;;;;;11.52;3.50;;;;;;;10.61;87.74;100482.84;4975307;28;20049;-70
2023/03/30 06:50:12;;;;;;;11.13;3.30;;;;;;;10.64;87.13;100492.44;4962933;28;20041;-70
2023/03/30 06:52:37;;;;;;;11.50;3.08;;;;;;;10.62;87.14;100492.47;4978425;28;20045;-71
2023/03/30 06:55:04;;;;;;;12.23;3.60;;;;;;;10.63;87.04;100493.31;4996365;28;20492;-71
2023/03/30 06:57:29;;;;;;;9.55;3.58;;;;;;;10.67;87.33;100495.84;4993242;28;20355;-71
2023/03/30 06:59:55;;;;;;;14.20;3.95;;;;;;;10.71;88.01;100500.13;4993120;28;20045;-71
2023/03/30 07:02:21;;;;;;;10.65;3.33;;;;;;;10.78;87.77;100494.81;4990876;28;20038;-71
2023/03/30 07:04:46;;;;;;;11.23;3.72;;;;;;;10.80;87.20;100488.63;5001391;28;20057;-71
2023/03/30 07:07:12;;;;;;;9.05;3.33;;;;;;;10.83;86.60;100491.22;4999406;28;20107;-71
2023/03/30 07:09:38;;;;;;;10.32;3.47;;;;;;;11.01;87.93;100491.75;4995530;28;20083;-72
2023/03/30 07:12:04;;;;;;;10.60;3.85;;;;;;;11.53;90.30;100490.69;4979388;28;20045;-71
2023/03/30 07:14:30;;;;;;;13.18;3.80;;;;;;;11.98;86.99;100502.84;4977483;28;20093;-72
2023/03/30 07:16:56;;;;;;;8.95;3.03;;;;;;;12.62;85.09;100504.84;4959659;28;20042;-71
2023/03/30 07:19:22;;;;;;;11.52;2.83;;;;;;;13.00;81.75;100503.81;4981599;28;20026;-71
2023/03/30 07:21:47;;;;;;;11.80;2.75;;;;;;;13.43;79.02;100506.19;4978869;28;20121;-72
2023/03/30 07:24:12;;;;;;;9.60;2.50;;;;;;;13.94;79.42;100507.31;4979092;28;20034;-71
2023/03/30 07:26:38;;;;;;;15.32;2.75;;;;;;;14.19;76.88;100508.25;4992277;28;20382;-72
2023/03/30 07:29:04;;;;;;;10.57;2.45;;;;;;;14.84;75.57;100500.84;4989920;28;20045;-72
2023/03/30 07:31:30;;;;;;;6.05;1.92;;;;;;;15.41;74.07;100512.00;4974743;28;20034;-72
2023/03/30 07:33:55;;;;;;;9.07;2.38;;;;;;;15.52;69.34;100508.94;4979373;28;21109;-72
2023/03/30 07:36:21;;;;;;;9.88;2.33;;;;;;;16.01;66.87;100513.31;4994863;28;20050;-78
2023/03/30 07:38:46;;;;;;;8.57;2.47;;;;;;;15.86;66.10;100518.28;4977098;28;20033;-78
2023/03/30 07:41:14;;;;;;;8.25;1.85;;;;;;;15.65;65.94;100514.63;4960726;28;20501;-78
2023/03/30 07:43:40;;;;;;;9.05;2.08;;;;;;;15.35;66.76;100519.28;4985693;28;20524;-77
2023/03/30 07:46:07;;;;;;;9.00;2.13;;;;;;;15.03;66.40;100523.97;4961692;28;20129;-77
2023/03/30 07:48:32;;;;;;;11.13;2.30;;;;;;;15.05;66.91;100519.47;4976330;28;20042;-77
2023/03/30 07:51:08;;;;;;;8.07;2.20;;;;;;;14.86;68.34;100528.03;4980450;28;20385;-77
2023/03/30 07:53:34;;;;;;;10.55;2.38;;;;;;;14.64;68.32;100532.31;4994555;28;20038;-77
2023/03/30 07:55:59;;;;;;;13.10;2.85;;;;;;;14.36;68.35;100531.41;4994557;28;20113;-77
2023/03/30 07:58:26;;;;;;;8.63;2.45;;;;;;;14.40;69.07;100536.59;4993294;28;20137;-72
2023/03/30 08:00:52;;;;;;;12.55;2.50;;;;;;;14.17;69.35;100544.31;4991999;28;20084;-72
2023/03/30 08:03:20;;;;;;;13.18;3.00;;;;;;;14.05;70.06;100552.63;4997056;28;20038;-71
2023/03/30 08:05:59;;;;;;;11.55;2.30;;;;;;;13.95;70.48;100540.63;4967544;28;20031;-72
2023/03/30 08:08:25;;;;;;;10.43;2.47;;;;;;;13.93;70.31;100547.72;5006545;28;20033;-71
2023/03/30 08:10:52;;;;;;;8.70;2.50;;;;;;;14.02;71.12;100550.06;4992666;28;20038;-71
2023/03/30 08:13:18;;;;;;;7.45;2.45;;;;;;;13.98;71.03;100566.91;4992733;28;20042;-71
2023/03/30 08:15:45;;;;;;;12.75;2.70;;;;;;;13.91;70.12;100553.03;5003460;28;20038;-71
2023/03/30 08:18:12;;;;;;;11.98;2.90;;;;;;;13.98;71.25;100554.56;4993903;28;20049;-72
2023/03/30 08:20:40;;;;;;;14.98;2.70;;;;;;;14.00;71.20;100560.66;4978030;28;20535;-71
2023/03/30 08:23:07;;;;;;;13.73;3.30;;;;;;;14.11;72.46;100560.34;4982037;28;20042;-72
2023/03/30 08:25:34;;;;;;;15.82;2.60;;;;;;;14.04;70.33;100564.06;4970971;28;20040;-72
2023/03/30 08:28:00;;;;;;;11.85;3.75;;;;;;;14.06;70.88;100559.59;4993341;28;20478;-72
2023/03/30 08:30:27;;;;;;;13.90;2.95;;;;;;;14.08;70.79;100557.78;4971849;28;20052;-71
2023/03/30 08:32:53;;;;;;;14.25;3.17;;;;;;;13.91;70.09;100555.66;4994271;28;20042;-71
2023/03/30 08:35:20;;;;;;;11.38;3.00;;;;;;;13.79;70.50;100564.81;4977701;28;20049;-72
2023/03/30 08:37:46;;;;;;;13.98;3.17;;;;;;;13.69;70.12;100572.13;4978488;28;20037;-72
2023/03/30 08:40:16;;;;;;;14.18;3.58;;;;;;;13.56;69.63;100564.59;4996145;28;20053;-71
2023/03/30 08:43:26;;;;;;;14.73;3.63;;;;;;;13.60;70.23;100566.25;4992657;28;20046;-71
2023/03/30 08:45:52;;;;;;;13.83;3.50;;;;;;;13.64;68.87;100565.25;5000627;28;20029;-72
2023/03/30 08:48:34;;;;;;;16.17;4.20;;;;;;;13.88;69.74;100562.78;4971001;28;20660;-71
2023/03/30 08:51:11;;;;;;;13.85;3.35;;;;;;;14.33;70.30;100562.28;5003725;28;20057;-72
2023/03/30 08:53:37;;;;;;;14.50;3.53;;;;;;;14.89;69.26;100561.38;4998736;28;20026;-71
2023/03/30 08:56:18;;;;;;;12.27;2.83;;;;;;;15.27;65.96;100560.94;4997157;28;20506;-72
2023/03/30 08:58:56;;;;;;;11.30;2.60;;;;;;;15.98;66.81;100569.78;4996670;28;20406;-72
2023/03/30 09:01:54;;;;;;;15.30;3.22;;;;;;;16.48;61.24;100551.94;5012658;28;20505;-71
2023/03/30 09:04:41;;;;;;;13.13;3.20;;;;;;;16.75;61.37;100569.34;4981749;28;20400;-72
2023/03/30 09:07:15;;;;;;;11.00;2.92;;;;;;;16.51;59.41;100558.00;5010295;28;20568;-71
2023/03/30 09:09:44;;;;;;;17.58;2.92;;;;;;;16.68;60.93;100565.22;4996058;28;20033;-72
2023/03/30 09:12:20;;;;;;;13.75;3.38;;;;;;;16.85;60.29;100553.06;4996102;28;20037;-71
2023/03/30 09:14:52;;;;;;;10.07;2.58;;;;;;;16.89;58.56;100559.97;4996354;28;20022;-71
2023/03/30 09:17:24;;;;;;;13.05;2.88;;;;;;;17.23;61.40;100569.97;4994904;28;20061;-72
2023/03/30 09:19:55;;;;;;;14.07;3.33;;;;;;;16.99;58.65;100571.91;4993279;28;20606;-72
2023/03/30 09:22:28;;;;;;;14.95;3.10;;;;;;;16.69;58.33;100581.97;4993533;28;20863;-71
2023/03/30 09:24:54;;;;;;;15.45;2.85;;;;;;;16.30;56.97;100588.78;4989306;28;20058;-71
2023/03/30 09:27:42;;;;;;;12.40;3.17;;;;;;;15.89;58.47;100586.00;4977666;28;20048;-71
2023/03/30 09:30:21;;;;;;;14.15;3.00;;;;;;;15.55;59.03;100593.34;4996063;28;20030;-71
2023/03/30 09:33:06;;;;;;;12.40;3.10;;;;;;;15.35;59.66;100599.34;5007798;28;20366;-71
2023/03/30 09:35:40;;;;;;;14.40;2.97;;;;;;;15.07;60.57;100596.81;5003893;28;20531;-72
2023/03/30 09:38:10;;;;;;;16.50;3.47;;;;;;;14.90;61.39;100608.78;4995690;28;20104;-71
2023/03/30 09:40:57;;;;;;;12.98;3.17;;;;;;;14.75;61.17;100605.81;4996447;28;20374;-71
2023/03/30 09:43:43;;;;;;;10.35;3.55;;;;;;;14.67;62.02;100611.34;4990983;28;20049;-71
2023/03/30 09:46:09;;;;;;;14.15;3.10;;;;;;;14.65;62.15;100619.31;4976506;28;20069;-71
2023/03/30 09:48:46;;;;;;;16.40;3.75;;;;;;;14.66;61.62;100620.16;4956915;28;20073;-71
2023/03/30 09:51:24;;;;;;;14.85;4.00;;;;;;;15.02;62.13;100614.56;4993793;28;20042;-71
2023/03/30 09:54:13;;;;;;;16.65;3.40;;;;;;;15.25;60.69;100613.78;4991903;28;20498;-72
2023/03/30 09:56:45;;;;;;;12.52;3.20;;;;;;;15.38;58.72;100606.28;4955506;28;20062;-75
2023/03/30 09:59:27;;;;;;;14.00;3.22;;;;;;;15.34;60.13;100608.19;4969025;28;20037;-77
2023/03/30 10:02:16;;;;;;;17.52;4.97;;;;;;;15.61;60.12;100617.81;4982922;28;20034;-76
2023/03/30 10:04:51;;;;;;;14.20;3.70;;;;;;;15.45;58.50;100613.09;4975810;28;20027;-71
2023/03/30 10:07:28;;;;;;;17.08;3.90;;;;;;;15.38;59.65;100620.34;4967868;28;20548;-71
2023/03/30 10:09:56;;;;;;;14.55;4.55;;;;;;;15.64;60.20;100623.84;4976408;28;20347;-71
2023/03/30 10:12:24;;;;;;;12.85;3.55;;;;;;;15.54;57.92;100614.53;4972323;28;20113;-71
2023/03/30 10:14:55;;;;;;;16.50;4.03;;;;;;;15.47;57.27;100616.50;4976618;28;20452;-71
2023/03/30 10:17:24;;;;;;;16.38;4.25;;;;;;;15.52;58.86;100633.06;4975399;28;20039;-72
2023/03/30 10:20:12;;;;;;;17.42;3.95;;;;;;;15.40;58.83;100630.84;4959486;28;20296;-71
2023/03/30 10:22:50;;;;;;;15.07;3.60;;;;;;;15.17;58.33;100627.25;4956863;28;20042;-71
2023/03/30 10:25:26;;;;;;;16.50;4.20;;;;;;;15.06;59.06;100632.03;4975491;28;20401;-71
2023/03/30 10:27:55;;;;;;;14.77;3.88;;;;;;;14.99;59.83;100641.06;4972461;28;20038;-72
2023/03/30 10:30:24;;;;;;;17.98;4.32;;;;;;;14.91;60.15;100654.50;4974982;28;20482;-71
2023/03/30 10:32:52;;;;;;;17.23;3.40;;;;;;;14.87;60.06;100635.28;4974308;28;20471;-71
2023/03/30 10:35:21;;;;;;;13.20;3.35;;;;;;;15.02;60.50;100644.47;4976099;28;20161;-72
2023/03/30 10:37:51;;;;;;;15.85;3.83;;;;;;;15.37;61.63;100631.84;4974901;28;20053;-72
2023/03/30 10:40:22;;;;;;;17.85;3.78;;;;;;;15.67;58.74;100650.13;5003093;28;20035;-71
2023/03/30 10:42:54;;;;;;;17.08;4.78;;;;;;;15.81;59.08;100641.75;4989612;28;20100;-71
2023/03/30 10:45:26;;;;;;;15.70;3.88;;;;;;;15.92;58.63;100639.56;4999783;28;20092;-71
2023/03/30 10:47:58;;;;;;;21.52;3.70;;;;;;;16.19;58.60;100630.66;5008730;28;20046;-71
2023/03/30 10:50:26;;;;;;;12.90;3.90;;;;;;;16.07;56.56;100637.28;5004984;28;20064;-70
2023/03/30 10:53:13;;;;;;;15.65;3.65;;;;;;;16.05;57.71;100636.50;4994798;28;20541;-72
2023/03/30 10:55:51;;;;;;;16.98;3.70;;;;;;;16.12;57.08;100635.34;5008060;28;20030;-72
2023/03/30 10:58:34;;;;;;;17.63;3.88;;;;;;;15.97;56.90;100642.03;4994019;28;20080;-71
2023/03/30 11:01:28;;;;;;;18.63;4.13;;;;;;;15.81;57.12;100641.75;5008709;28;20497;-70
2023/03/30 11:04:00;;;;;;;18.75;4.03;;;;;;;15.70;57.05;100631.56;4992750;28;20284;-71
2023/03/30 11:06:33;;;;;;;13.77;4.40;;;;;;;15.69;58.64;100636.91;5007159;28;20034;-72
2023/03/30 11:09:03;;;;;;;15.07;3.38;;;;;;;15.62;56.49;100630.97;4994020;28;20438;-71
2023/03/30 11:11:43;;;;;;;13.90;3.30;;;;;;;15.45;56.53;100636.84;5005350;28;20064;-71
2023/03/30 11:14:20;;;;;;;15.32;3.58;;;;;;;15.44;59.09;100635.13;4990115;28;20121;-72
2023/03/30 11:17:07;;;;;;;12.55;3.40;;;;;;;15.55;58.59;100646.16;5002424;28;20045;-71
2023/03/30 11:19:46;;;;;;;16.90;4.10;;;;;;;15.72;58.67;100644.72;4995199;28;20220;-71
2023/03/30 11:22:24;;;;;;;18.35;4.15;;;;;;;15.87;58.61;100646.81;5007596;28;20044;-72
2023/03/30 11:24:53;;;;;;;15.90;3.80;;;;;;;16.20;58.23;100648.25;5010300;28;20512;-71
2023/03/30 11:27:29;;;;;;;15.73;4.15;;;;;;;16.46;56.04;100639.28;4992680;28;20038;-72
2023/03/30 11:30:17;;;;;;;17.35;4.20;;;;;;;16.59;56.90;100635.25;4986662;28;20049;-71
2023/03/30 11:32:49;;;;;;;15.93;4.32;;;;;;;16.67;55.05;100634.94;5007758;28;20042;-72
2023/03/30 11:35:33;;;;;;;16.25;3.78;;;;;;;16.60;54.73;100634.31;4995054;28;20512;-72
2023/03/30 11:38:11;;;;;;;10.32;2.90;;;;;;;16.36;54.26;100625.56;4987534;28;20042;-72
2023/03/30 11:40:48;;;;;;;13.88;3.10;;;;;;;16.37;55.85;100618.50;4992035;28;20037;-71
2023/03/30 11:43:21;;;;;;;12.45;3.33;;;;;;;16.37;55.74;100626.44;4993509;28;20066;-71
2023/03/30 11:46:08;;;;;;;11.05;3.58;;;;;;;16.65;56.80;100631.50;4978278;28;20038;-70
2023/03/30 11:48:52;;;;;;;13.18;3.30;;;;;;;17.02;57.78;100623.84;4994119;28;20030;-73
2023/03/30 11:51:48;;;;;;;13.05;3.47;;;;;;;17.34;55.72;100626.91;4989686;28;20382;-72
2023/03/30 11:55:16;;;;;;;10.27;3.15;;;;;;;17.43;53.98;100618.56;5009557;28;20038;-69
2023/03/30 11:57:59;;;;;;;13.68;3.33;;;;;;;17.86;54.52;100616.63;4927284;29;20094;-70
2023/03/30 12:00:42;;;;;;;15.82;3.60;;;;;;;17.97;53.67;100630.31;4935419;29;20047;-70
2023/03/30 12:03:32;;;;;;;15.48;3.17;;;;;;;18.14;53.54;100639.25;4986758;28;20044;-70
2023/03/30 12:06:24;;;;;;;10.55;3.00;;;;;;;17.84;51.40;100634.38;5013259;28;20427;-72
2023/03/30 12:09:03;;;;;;;10.85;2.83;;;;;;;17.91;53.53;100643.81;4998179;28;20091;-72
2023/03/30 12:11:52;;;;;;;12.27;3.03;;;;;;;17.96;52.49;100631.22;4993978;28;20061;-70
2023/03/30 12:14:40;;;;;;;12.43;2.97;;;;;;;17.85;51.12;100636.13;4991793;28;20038;-69
2023/03/30 12:17:13;;;;;;;13.23;2.83;;;;;;;17.86;53.01;100639.63;4997539;28;20108;-70